Main page
METAR-TAF:

METAR-TAF

Airports :

Kirkenes Airport. Høybuktmoen

Kirkenes, Norway

latitude: 69-44N, longitude: 029-54E, elevation: 9 m

Current weather observation

The report was made 29 minutes ago, at 17:20 UTC
Wind 4 kt from the South
Temperature 26°C
Humidity 28%
Pressure 1014 hPa
Visibility 10 km or more
no clouds below 1500 m and no cumulonimbus

METAR: ENKR 231720Z 18004KT CAVOK 26/06 Q1014 RMK WIND 731FT 20008KT

Time: 19:49 (17:49 UTC)

Forecast

The report was made 3 hours and 49 minutes ago, at 14:00 UTC
Forecast valid from 23 at 15 UTC to 23 at 24 UTC
Wind 9 kt from the South
Visibility 10 km or more
no clouds below 1500 m and no cumulonimbus

TAF: ENKR 231400Z 2315/2324 18009KT CAVOK

Weather observations and forecasts of more than 4000 airports (METAR and TAF reports).

The available stations are represented by yellow and red dots on the map.

Hover mouse over dot to see the name of the station.

Then click to see weather observations and forecasts.

To change the map : click on the green buttons with a black cross to zoom in, on the green button with a dash to zoom out, or on the green arrows for adjacent maps.


METAR-TAF: